sensor_id;sensor_type;location;lat;lon;timestamp;P1;durP1;ratioP1;P2;durP2;ratioP2
72720;SDS011;60835;50.974;10.322;2024-01-06T00:02:06;3.00;;;1.50;;
72720;SDS011;60835;50.974;10.322;2024-01-06T00:04:32;4.10;;;1.25;;
72720;SDS011;60835;50.974;10.322;2024-01-06T00:06:59;3.50;;;1.20;;
72720;SDS011;60835;50.974;10.322;2024-01-06T00:09:25;4.95;;;1.67;;
72720;SDS011;60835;50.974;10.322;2024-01-06T00:11:52;3.33;;;1.65;;
72720;SDS011;60835;50.974;10.322;2024-01-06T00:14:19;6.10;;;2.03;;
72720;SDS011;60835;50.974;10.322;2024-01-06T00:16:45;6.72;;;2.50;;
72720;SDS011;60835;50.974;10.322;2024-01-06T00:19:11;5.95;;;1.67;;
72720;SDS011;60835;50.974;10.322;2024-01-06T00:21:38;11.15;;;3.13;;
72720;SDS011;60835;50.974;10.322;2024-01-06T00:24:05;5.20;;;1.80;;
72720;SDS011;60835;50.974;10.322;2024-01-06T00:26:31;5.03;;;1.63;;
72720;SDS011;60835;50.974;10.322;2024-01-06T00:28:58;11.88;;;3.28;;
72720;SDS011;60835;50.974;10.322;2024-01-06T00:31:24;9.82;;;2.55;;
72720;SDS011;60835;50.974;10.322;2024-01-06T00:33:51;5.18;;;1.92;;
72720;SDS011;60835;50.974;10.322;2024-01-06T00:36:17;4.47;;;1.38;;
72720;SDS011;60835;50.974;10.322;2024-01-06T00:38:44;8.23;;;2.40;;
72720;SDS011;60835;50.974;10.322;2024-01-06T00:41:11;6.18;;;1.70;;
72720;SDS011;60835;50.974;10.322;2024-01-06T00:43:37;11.40;;;3.40;;
72720;SDS011;60835;50.974;10.322;2024-01-06T00:46:04;5.05;;;2.30;;
72720;SDS011;60835;50.974;10.322;2024-01-06T00:48:30;3.60;;;1.25;;
72720;SDS011;60835;50.974;10.322;2024-01-06T00:50:57;5.03;;;1.25;;
72720;SDS011;60835;50.974;10.322;2024-01-06T00:53:23;5.95;;;2.15;;
72720;SDS011;60835;50.974;10.322;2024-01-06T00:55:50;3.50;;;1.50;;
72720;SDS011;60835;50.974;10.322;2024-01-06T00:58:17;5.43;;;1.55;;
72720;SDS011;60835;50.974;10.322;2024-01-06T01:00:44;7.65;;;1.52;;
72720;SDS011;60835;50.974;10.322;2024-01-06T01:03:10;7.15;;;1.27;;
72720;SDS011;60835;50.974;10.322;2024-01-06T01:05:37;3.50;;;1.48;;
72720;SDS011;60835;50.974;10.322;2024-01-06T01:08:04;6.32;;;1.33;;
72720;SDS011;60835;50.974;10.322;2024-01-06T01:10:31;6.40;;;1.60;;
72720;SDS011;60835;50.974;10.322;2024-01-06T01:12:57;4.00;;;1.27;;
72720;SDS011;60835;50.974;10.322;2024-01-06T01:15:24;4.38;;;1.52;;
72720;SDS011;60835;50.974;10.322;2024-01-06T01:17:50;2.00;;;0.88;;
72720;SDS011;60835;50.974;10.322;2024-01-06T01:20:17;6.70;;;2.20;;
72720;SDS011;60835;50.974;10.322;2024-01-06T01:22:43;5.57;;;1.25;;
72720;SDS011;60835;50.974;10.322;2024-01-06T01:25:10;2.00;;;0.98;;
72720;SDS011;60835;50.974;10.322;2024-01-06T01:27:38;3.53;;;1.10;;
72720;SDS011;60835;50.974;10.322;2024-01-06T01:30:05;1.50;;;0.85;;
72720;SDS011;60835;50.974;10.322;2024-01-06T01:32:33;2.75;;;1.20;;
72720;SDS011;60835;50.974;10.322;2024-01-06T01:35:00;4.07;;;1.23;;
72720;SDS011;60835;50.974;10.322;2024-01-06T01:37:26;3.95;;;1.05;;
72720;SDS011;60835;50.974;10.322;2024-01-06T01:39:53;5.78;;;1.02;;
72720;SDS011;60835;50.974;10.322;2024-01-06T01:42:19;2.88;;;1.27;;
72720;SDS011;60835;50.974;10.322;2024-01-06T01:44:46;2.55;;;0.90;;
72720;SDS011;60835;50.974;10.322;2024-01-06T01:47:12;3.28;;;0.93;;
72720;SDS011;60835;50.974;10.322;2024-01-06T01:49:45;3.92;;;1.58;;
72720;SDS011;60835;50.974;10.322;2024-01-06T01:52:13;5.85;;;1.33;;
72720;SDS011;60835;50.974;10.322;2024-01-06T01:54:42;4.65;;;1.20;;
72720;SDS011;60835;50.974;10.322;2024-01-06T01:57:10;4.78;;;1.52;;
72720;SDS011;60835;50.974;10.322;2024-01-06T01:59:39;6.38;;;1.30;;
72720;SDS011;60835;50.974;10.322;2024-01-06T02:02:06;4.93;;;1.30;;
72720;SDS011;60835;50.974;10.322;2024-01-06T02:04:32;5.07;;;1.23;;
72720;SDS011;60835;50.974;10.322;2024-01-06T02:06:59;3.50;;;1.00;;
72720;SDS011;60835;50.974;10.322;2024-01-06T02:09:26;7.32;;;1.52;;
72720;SDS011;60835;50.974;10.322;2024-01-06T02:11:58;3.65;;;1.30;;
72720;SDS011;60835;50.974;10.322;2024-01-06T02:14:25;4.30;;;1.20;;
72720;SDS011;60835;50.974;10.322;2024-01-06T02:16:52;2.97;;;0.90;;
72720;SDS011;60835;50.974;10.322;2024-01-06T02:19:18;5.07;;;1.20;;
72720;SDS011;60835;50.974;10.322;2024-01-06T02:21:48;2.78;;;1.02;;
72720;SDS011;60835;50.974;10.322;2024-01-06T02:24:18;5.53;;;1.00;;
72720;SDS011;60835;50.974;10.322;2024-01-06T02:26:44;4.95;;;0.90;;
72720;SDS011;60835;50.974;10.322;2024-01-06T02:29:11;3.28;;;1.20;;
72720;SDS011;60835;50.974;10.322;2024-01-06T02:31:38;4.90;;;1.40;;
72720;SDS011;60835;50.974;10.322;2024-01-06T02:34:05;3.92;;;1.00;;
72720;SDS011;60835;50.974;10.322;2024-01-06T02:36:32;3.47;;;1.42;;
72720;SDS011;60835;50.974;10.322;2024-01-06T02:38:58;4.72;;;1.38;;
72720;SDS011;60835;50.974;10.322;2024-01-06T02:41:25;2.92;;;1.05;;
72720;SDS011;60835;50.974;10.322;2024-01-06T02:43:54;3.17;;;0.90;;
72720;SDS011;60835;50.974;10.322;2024-01-06T02:46:21;2.70;;;0.93;;
72720;SDS011;60835;50.974;10.322;2024-01-06T02:48:48;2.97;;;1.10;;
72720;SDS011;60835;50.974;10.322;2024-01-06T02:51:14;5.60;;;1.27;;
72720;SDS011;60835;50.974;10.322;2024-01-06T02:53:41;3.40;;;1.20;;
72720;SDS011;60835;50.974;10.322;2024-01-06T02:56:11;3.47;;;1.05;;
72720;SDS011;60835;50.974;10.322;2024-01-06T02:58:38;3.10;;;1.00;;
72720;SDS011;60835;50.974;10.322;2024-01-06T03:01:05;3.33;;;1.17;;
72720;SDS011;60835;50.974;10.322;2024-01-06T03:03:32;3.78;;;0.93;;
72720;SDS011;60835;50.974;10.322;2024-01-06T03:05:59;6.68;;;1.23;;
72720;SDS011;60835;50.974;10.322;2024-01-06T03:08:26;5.28;;;1.00;;
72720;SDS011;60835;50.974;10.322;2024-01-06T03:10:53;1.65;;;1.02;;
72720;SDS011;60835;50.974;10.322;2024-01-06T03:13:20;6.22;;;1.52;;
72720;SDS011;60835;50.974;10.322;2024-01-06T03:15:46;3.67;;;1.17;;
72720;SDS011;60835;50.974;10.322;2024-01-06T03:18:13;3.05;;;1.08;;
72720;SDS011;60835;50.974;10.322;2024-01-06T03:20:39;4.80;;;1.38;;
72720;SDS011;60835;50.974;10.322;2024-01-06T03:23:06;3.03;;;1.27;;
72720;SDS011;60835;50.974;10.322;2024-01-06T03:25:32;4.25;;;1.20;;
72720;SDS011;60835;50.974;10.322;2024-01-06T03:27:59;5.15;;;1.20;;
72720;SDS011;60835;50.974;10.322;2024-01-06T03:30:25;3.88;;;1.00;;
72720;SDS011;60835;50.974;10.322;2024-01-06T03:32:52;4.10;;;1.10;;
72720;SDS011;60835;50.974;10.322;2024-01-06T03:35:19;5.95;;;1.20;;
72720;SDS011;60835;50.974;10.322;2024-01-06T03:37:45;9.57;;;1.33;;
72720;SDS011;60835;50.974;10.322;2024-01-06T03:40:12;4.07;;;1.10;;
72720;SDS011;60835;50.974;10.322;2024-01-06T03:42:39;3.45;;;2.03;;
72720;SDS011;60835;50.974;10.322;2024-01-06T03:45:05;4.15;;;1.17;;
72720;SDS011;60835;50.974;10.322;2024-01-06T03:47:32;4.55;;;1.23;;
72720;SDS011;60835;50.974;10.322;2024-01-06T03:49:59;7.75;;;1.33;;
72720;SDS011;60835;50.974;10.322;2024-01-06T03:52:27;3.28;;;1.30;;
72720;SDS011;60835;50.974;10.322;2024-01-06T03:54:53;6.95;;;1.38;;
72720;SDS011;60835;50.974;10.322;2024-01-06T03:57:20;6.05;;;1.23;;
72720;SDS011;60835;50.974;10.322;2024-01-06T03:59:46;2.75;;;1.20;;
72720;SDS011;60835;50.974;10.322;2024-01-06T04:02:13;3.97;;;1.23;;
72720;SDS011;60835;50.974;10.322;2024-01-06T04:04:39;3.88;;;1.92;;
72720;SDS011;60835;50.974;10.322;2024-01-06T04:07:06;4.15;;;0.90;;
72720;SDS011;60835;50.974;10.322;2024-01-06T04:09:33;5.03;;;1.45;;
72720;SDS011;60835;50.974;10.322;2024-01-06T04:11:59;10.77;;;1.30;;
72720;SDS011;60835;50.974;10.322;2024-01-06T04:14:27;2.85;;;1.10;;
72720;SDS011;60835;50.974;10.322;2024-01-06T04:16:54;5.25;;;1.33;;
72720;SDS011;60835;50.974;10.322;2024-01-06T04:19:23;3.72;;;1.27;;
72720;SDS011;60835;50.974;10.322;2024-01-06T04:21:50;5.28;;;1.40;;
72720;SDS011;60835;50.974;10.322;2024-01-06T04:24:17;4.30;;;1.30;;
72720;SDS011;60835;50.974;10.322;2024-01-06T04:26:44;3.30;;;1.23;;
72720;SDS011;60835;50.974;10.322;2024-01-06T04:29:11;4.78;;;1.20;;
72720;SDS011;60835;50.974;10.322;2024-01-06T04:31:38;6.95;;;1.23;;
72720;SDS011;60835;50.974;10.322;2024-01-06T04:34:05;4.25;;;1.20;;
72720;SDS011;60835;50.974;10.322;2024-01-06T04:36:32;6.70;;;1.67;;
72720;SDS011;60835;50.974;10.322;2024-01-06T04:38:59;5.95;;;1.45;;
72720;SDS011;60835;50.974;10.322;2024-01-06T04:41:25;3.25;;;1.20;;
72720;SDS011;60835;50.974;10.322;2024-01-06T04:43:52;4.68;;;1.42;;
72720;SDS011;60835;50.974;10.322;2024-01-06T04:46:18;5.05;;;1.30;;
72720;SDS011;60835;50.974;10.322;2024-01-06T04:48:45;3.65;;;1.30;;
72720;SDS011;60835;50.974;10.322;2024-01-06T04:51:11;3.35;;;0.98;;
72720;SDS011;60835;50.974;10.322;2024-01-06T04:53:38;6.43;;;1.30;;
72720;SDS011;60835;50.974;10.322;2024-01-06T04:56:05;2.35;;;1.60;;
72720;SDS011;60835;50.974;10.322;2024-01-06T04:58:34;6.20;;;1.60;;
72720;SDS011;60835;50.974;10.322;2024-01-06T05:01:01;5.40;;;1.50;;
72720;SDS011;60835;50.974;10.322;2024-01-06T05:03:29;6.40;;;1.60;;
72720;SDS011;60835;50.974;10.322;2024-01-06T05:05:55;3.05;;;1.17;;
72720;SDS011;60835;50.974;10.322;2024-01-06T05:08:22;1.83;;;1.13;;
72720;SDS011;60835;50.974;10.322;2024-01-06T05:10:48;2.78;;;1.20;;
72720;SDS011;60835;50.974;10.322;2024-01-06T05:13:15;1.88;;;1.15;;
72720;SDS011;60835;50.974;10.322;2024-01-06T05:15:43;2.55;;;1.20;;
72720;SDS011;60835;50.974;10.322;2024-01-06T05:18:10;2.80;;;1.00;;
72720;SDS011;60835;50.974;10.322;2024-01-06T05:20:36;5.20;;;1.42;;
72720;SDS011;60835;50.974;10.322;2024-01-06T05:23:03;5.15;;;1.30;;
72720;SDS011;60835;50.974;10.322;2024-01-06T05:25:30;6.25;;;1.30;;
72720;SDS011;60835;50.974;10.322;2024-01-06T05:27:56;6.72;;;1.40;;
72720;SDS011;60835;50.974;10.322;2024-01-06T05:30:23;2.55;;;1.30;;
72720;SDS011;60835;50.974;10.322;2024-01-06T05:32:50;3.17;;;1.48;;
72720;SDS011;60835;50.974;10.322;2024-01-06T05:35:17;5.63;;;1.40;;
72720;SDS011;60835;50.974;10.322;2024-01-06T05:37:43;4.90;;;1.48;;
72720;SDS011;60835;50.974;10.322;2024-01-06T05:40:10;6.53;;;1.58;;
72720;SDS011;60835;50.974;10.322;2024-01-06T05:42:37;5.35;;;2.03;;
72720;SDS011;60835;50.974;10.322;2024-01-06T05:45:04;4.45;;;1.70;;
72720;SDS011;60835;50.974;10.322;2024-01-06T05:47:31;6.60;;;1.50;;
72720;SDS011;60835;50.974;10.322;2024-01-06T05:49:58;2.53;;;1.30;;
72720;SDS011;60835;50.974;10.322;2024-01-06T05:52:25;4.25;;;1.40;;
72720;SDS011;60835;50.974;10.322;2024-01-06T05:54:51;2.47;;;1.20;;
72720;SDS011;60835;50.974;10.322;2024-01-06T05:57:18;3.60;;;1.23;;
72720;SDS011;60835;50.974;10.322;2024-01-06T05:59:44;8.68;;;2.45;;
72720;SDS011;60835;50.974;10.322;2024-01-06T06:02:11;5.38;;;1.40;;
72720;SDS011;60835;50.974;10.322;2024-01-06T06:04:37;5.07;;;1.52;;
72720;SDS011;60835;50.974;10.322;2024-01-06T06:07:04;5.45;;;1.60;;
72720;SDS011;60835;50.974;10.322;2024-01-06T06:09:30;4.95;;;1.80;;
72720;SDS011;60835;50.974;10.322;2024-01-06T06:11:57;4.97;;;1.60;;
72720;SDS011;60835;50.974;10.322;2024-01-06T06:14:24;6.63;;;1.92;;
72720;SDS011;60835;50.974;10.322;2024-01-06T06:16:54;7.03;;;1.80;;
72720;SDS011;60835;50.974;10.322;2024-01-06T06:19:20;6.60;;;2.75;;
72720;SDS011;60835;50.974;10.322;2024-01-06T06:21:47;8.57;;;2.13;;
72720;SDS011;60835;50.974;10.322;2024-01-06T06:24:14;4.40;;;1.50;;
72720;SDS011;60835;50.974;10.322;2024-01-06T06:26:40;4.93;;;1.60;;
72720;SDS011;60835;50.974;10.322;2024-01-06T06:29:07;5.63;;;1.42;;
72720;SDS011;60835;50.974;10.322;2024-01-06T06:31:34;4.25;;;1.27;;
72720;SDS011;60835;50.974;10.322;2024-01-06T06:34:00;8.07;;;1.40;;
72720;SDS011;60835;50.974;10.322;2024-01-06T06:36:32;7.57;;;1.70;;
72720;SDS011;60835;50.974;10.322;2024-01-06T06:38:59;3.70;;;1.45;;
72720;SDS011;60835;50.974;10.322;2024-01-06T06:41:25;4.13;;;1.70;;
72720;SDS011;60835;50.974;10.322;2024-01-06T06:43:52;3.85;;;1.85;;
72720;SDS011;60835;50.974;10.322;2024-01-06T06:46:19;9.40;;;2.47;;
72720;SDS011;60835;50.974;10.322;2024-01-06T06:48:46;9.15;;;1.73;;
72720;SDS011;60835;50.974;10.322;2024-01-06T06:51:12;8.93;;;2.22;;
72720;SDS011;60835;50.974;10.322;2024-01-06T06:53:39;14.55;;;3.50;;
72720;SDS011;60835;50.974;10.322;2024-01-06T06:56:05;3.83;;;1.77;;
72720;SDS011;60835;50.974;10.322;2024-01-06T06:58:33;6.68;;;2.10;;
72720;SDS011;60835;50.974;10.322;2024-01-06T07:00:59;10.68;;;1.90;;
72720;SDS011;60835;50.974;10.322;2024-01-06T07:03:26;11.07;;;1.75;;
72720;SDS011;60835;50.974;10.322;2024-01-06T07:05:53;7.50;;;2.95;;
72720;SDS011;60835;50.974;10.322;2024-01-06T07:08:20;6.20;;;2.35;;
72720;SDS011;60835;50.974;10.322;2024-01-06T07:10:47;8.80;;;3.13;;
72720;SDS011;60835;50.974;10.322;2024-01-06T07:13:14;7.50;;;2.45;;
72720;SDS011;60835;50.974;10.322;2024-01-06T07:15:40;6.13;;;1.95;;
72720;SDS011;60835;50.974;10.322;2024-01-06T07:18:08;4.50;;;1.90;;
72720;SDS011;60835;50.974;10.322;2024-01-06T07:20:35;6.10;;;1.80;;
72720;SDS011;60835;50.974;10.322;2024-01-06T07:23:02;6.18;;;1.67;;
72720;SDS011;60835;50.974;10.322;2024-01-06T07:25:29;6.20;;;2.10;;
72720;SDS011;60835;50.974;10.322;2024-01-06T07:27:56;9.45;;;2.05;;
72720;SDS011;60835;50.974;10.322;2024-01-06T07:30:23;10.02;;;2.70;;
72720;SDS011;60835;50.974;10.322;2024-01-06T07:32:50;7.68;;;2.50;;
72720;SDS011;60835;50.974;10.322;2024-01-06T07:35:18;6.28;;;2.38;;
72720;SDS011;60835;50.974;10.322;2024-01-06T07:37:44;3.80;;;2.05;;
72720;SDS011;60835;50.974;10.322;2024-01-06T07:40:11;9.52;;;2.55;;
72720;SDS011;60835;50.974;10.322;2024-01-06T07:42:39;6.45;;;2.25;;
72720;SDS011;60835;50.974;10.322;2024-01-06T07:45:05;4.07;;;1.80;;
72720;SDS011;60835;50.974;10.322;2024-01-06T07:47:33;4.20;;;2.10;;
72720;SDS011;60835;50.974;10.322;2024-01-06T07:50:01;4.60;;;2.40;;
72720;SDS011;60835;50.974;10.322;2024-01-06T07:52:28;4.22;;;2.40;;
72720;SDS011;60835;50.974;10.322;2024-01-06T07:54:54;5.90;;;2.50;;
72720;SDS011;60835;50.974;10.322;2024-01-06T07:57:21;6.53;;;2.72;;
72720;SDS011;60835;50.974;10.322;2024-01-06T07:59:48;7.38;;;2.58;;
72720;SDS011;60835;50.974;10.322;2024-01-06T08:02:14;9.15;;;2.95;;
72720;SDS011;60835;50.974;10.322;2024-01-06T08:04:41;10.27;;;2.97;;
72720;SDS011;60835;50.974;10.322;2024-01-06T08:07:07;7.38;;;2.33;;
72720;SDS011;60835;50.974;10.322;2024-01-06T08:09:34;7.28;;;2.30;;
72720;SDS011;60835;50.974;10.322;2024-01-06T08:12:01;4.57;;;2.05;;
72720;SDS011;60835;50.974;10.322;2024-01-06T08:14:29;5.78;;;2.78;;
72720;SDS011;60835;50.974;10.322;2024-01-06T08:16:56;7.30;;;2.30;;
72720;SDS011;60835;50.974;10.322;2024-01-06T08:19:22;7.55;;;2.25;;
72720;SDS011;60835;50.974;10.322;2024-01-06T08:21:49;7.85;;;3.15;;
72720;SDS011;60835;50.974;10.322;2024-01-06T08:24:15;8.10;;;3.70;;
72720;SDS011;60835;50.974;10.322;2024-01-06T08:26:42;11.05;;;5.05;;
72720;SDS011;60835;50.974;10.322;2024-01-06T08:29:09;8.70;;;3.25;;
72720;SDS011;60835;50.974;10.322;2024-01-06T08:31:36;9.25;;;3.15;;
72720;SDS011;60835;50.974;10.322;2024-01-06T08:34:02;8.38;;;2.53;;
72720;SDS011;60835;50.974;10.322;2024-01-06T08:36:31;6.28;;;2.80;;
72720;SDS011;60835;50.974;10.322;2024-01-06T08:38:58;4.90;;;2.88;;
72720;SDS011;60835;50.974;10.322;2024-01-06T08:41:24;7.82;;;2.80;;
72720;SDS011;60835;50.974;10.322;2024-01-06T08:43:51;6.47;;;2.65;;
72720;SDS011;60835;50.974;10.322;2024-01-06T08:46:17;9.10;;;2.50;;
72720;SDS011;60835;50.974;10.322;2024-01-06T08:48:44;7.70;;;2.97;;
72720;SDS011;60835;50.974;10.322;2024-01-06T08:51:10;6.20;;;2.80;;
72720;SDS011;60835;50.974;10.322;2024-01-06T08:53:37;8.73;;;2.72;;
72720;SDS011;60835;50.974;10.322;2024-01-06T08:56:04;8.02;;;2.42;;
72720;SDS011;60835;50.974;10.322;2024-01-06T08:58:30;4.38;;;2.50;;
72720;SDS011;60835;50.974;10.322;2024-01-06T09:00:57;7.35;;;2.72;;
72720;SDS011;60835;50.974;10.322;2024-01-06T09:03:23;8.45;;;2.67;;
72720;SDS011;60835;50.974;10.322;2024-01-06T09:05:54;5.03;;;2.65;;
72720;SDS011;60835;50.974;10.322;2024-01-06T09:08:22;10.18;;;4.10;;
72720;SDS011;60835;50.974;10.322;2024-01-06T09:10:50;12.07;;;2.65;;
72720;SDS011;60835;50.974;10.322;2024-01-06T09:13:23;5.85;;;3.42;;
72720;SDS011;60835;50.974;10.322;2024-01-06T09:15:50;7.80;;;3.75;;
72720;SDS011;60835;50.974;10.322;2024-01-06T09:18:17;7.65;;;2.78;;
72720;SDS011;60835;50.974;10.322;2024-01-06T09:20:46;8.23;;;3.17;;
72720;SDS011;60835;50.974;10.322;2024-01-06T09:23:16;7.88;;;2.95;;
72720;SDS011;60835;50.974;10.322;2024-01-06T09:25:43;13.18;;;4.47;;
72720;SDS011;60835;50.974;10.322;2024-01-06T09:28:09;7.50;;;3.55;;
72720;SDS011;60835;50.974;10.322;2024-01-06T09:30:37;11.73;;;4.32;;
72720;SDS011;60835;50.974;10.322;2024-01-06T09:33:04;12.05;;;3.20;;
72720;SDS011;60835;50.974;10.322;2024-01-06T09:35:31;9.82;;;3.58;;
72720;SDS011;60835;50.974;10.322;2024-01-06T09:37:57;18.27;;;5.88;;
72720;SDS011;60835;50.974;10.322;2024-01-06T09:40:24;9.98;;;3.53;;
72720;SDS011;60835;50.974;10.322;2024-01-06T09:42:50;13.57;;;4.43;;
72720;SDS011;60835;50.974;10.322;2024-01-06T09:45:18;7.40;;;3.13;;
72720;SDS011;60835;50.974;10.322;2024-01-06T09:47:45;7.10;;;3.50;;
72720;SDS011;60835;50.974;10.322;2024-01-06T09:50:18;25.58;;;8.63;;
72720;SDS011;60835;50.974;10.322;2024-01-06T09:52:46;15.20;;;5.38;;
72720;SDS011;60835;50.974;10.322;2024-01-06T09:55:24;10.88;;;4.68;;
72720;SDS011;60835;50.974;10.322;2024-01-06T09:57:54;12.52;;;4.82;;
72720;SDS011;60835;50.974;10.322;2024-01-06T10:00:21;9.35;;;4.50;;
72720;SDS011;60835;50.974;10.322;2024-01-06T10:02:48;8.98;;;4.30;;
72720;SDS011;60835;50.974;10.322;2024-01-06T10:05:15;11.80;;;5.13;;
72720;SDS011;60835;50.974;10.322;2024-01-06T10:07:44;7.90;;;4.13;;
72720;SDS011;60835;50.974;10.322;2024-01-06T10:10:11;9.50;;;3.70;;
72720;SDS011;60835;50.974;10.322;2024-01-06T10:12:39;10.43;;;4.50;;
72720;SDS011;60835;50.974;10.322;2024-01-06T10:15:08;10.82;;;4.03;;
72720;SDS011;60835;50.974;10.322;2024-01-06T10:17:37;14.27;;;4.93;;
72720;SDS011;60835;50.974;10.322;2024-01-06T10:20:06;10.68;;;4.00;;
72720;SDS011;60835;50.974;10.322;2024-01-06T10:22:37;10.68;;;4.75;;
72720;SDS011;60835;50.974;10.322;2024-01-06T10:25:06;9.55;;;4.40;;
72720;SDS011;60835;50.974;10.322;2024-01-06T10:27:37;7.68;;;4.05;;
72720;SDS011;60835;50.974;10.322;2024-01-06T10:30:08;10.80;;;4.55;;
72720;SDS011;60835;50.974;10.322;2024-01-06T10:32:36;11.38;;;4.63;;
72720;SDS011;60835;50.974;10.322;2024-01-06T10:35:03;8.00;;;4.10;;
72720;SDS011;60835;50.974;10.322;2024-01-06T10:37:33;12.88;;;4.50;;
72720;SDS011;60835;50.974;10.322;2024-01-06T10:42:36;9.52;;;4.47;;
72720;SDS011;60835;50.974;10.322;2024-01-06T10:45:08;13.52;;;4.97;;
72720;SDS011;60835;50.974;10.322;2024-01-06T10:47:40;11.25;;;5.18;;
72720;SDS011;60835;50.974;10.322;2024-01-06T10:50:09;11.40;;;4.60;;
72720;SDS011;60835;50.974;10.322;2024-01-06T10:52:37;8.32;;;5.18;;
72720;SDS011;60835;50.974;10.322;2024-01-06T10:55:05;9.77;;;4.68;;
72720;SDS011;60835;50.974;10.322;2024-01-06T10:57:32;10.20;;;4.72;;
72720;SDS011;60835;50.974;10.322;2024-01-06T10:59:59;11.18;;;5.25;;
72720;SDS011;60835;50.974;10.322;2024-01-06T11:02:26;10.93;;;4.57;;
72720;SDS011;60835;50.974;10.322;2024-01-06T11:04:53;15.75;;;5.25;;
72720;SDS011;60835;50.974;10.322;2024-01-06T11:07:21;8.48;;;3.97;;
72720;SDS011;60835;50.974;10.322;2024-01-06T11:09:56;5.93;;;2.70;;
72720;SDS011;60835;50.974;10.322;2024-01-06T11:12:24;7.30;;;2.40;;
72720;SDS011;60835;50.974;10.322;2024-01-06T11:14:52;6.38;;;2.72;;
72720;SDS011;60835;50.974;10.322;2024-01-06T11:20:20;5.47;;;2.50;;
72720;SDS011;60835;50.974;10.322;2024-01-06T11:22:48;4.65;;;1.83;;
72720;SDS011;60835;50.974;10.322;2024-01-06T11:25:16;21.13;;;6.32;;
72720;SDS011;60835;50.974;10.322;2024-01-06T11:27:45;23.98;;;6.95;;
72720;SDS011;60835;50.974;10.322;2024-01-06T11:30:26;13.60;;;3.70;;
72720;SDS011;60835;50.974;10.322;2024-01-06T11:32:53;9.85;;;3.40;;
72720;SDS011;60835;50.974;10.322;2024-01-06T11:35:26;9.93;;;3.03;;
72720;SDS011;60835;50.974;10.322;2024-01-06T11:38:11;9.52;;;3.15;;
72720;SDS011;60835;50.974;10.322;2024-01-06T11:40:38;7.68;;;3.42;;
72720;SDS011;60835;50.974;10.322;2024-01-06T11:43:09;11.02;;;3.10;;
72720;SDS011;60835;50.974;10.322;2024-01-06T11:45:37;4.70;;;2.53;;
72720;SDS011;60835;50.974;10.322;2024-01-06T11:48:07;11.48;;;2.72;;
72720;SDS011;60835;50.974;10.322;2024-01-06T11:50:35;6.97;;;2.40;;
72720;SDS011;60835;50.974;10.322;2024-01-06T11:53:03;5.93;;;2.42;;
72720;SDS011;60835;50.974;10.322;2024-01-06T11:55:30;10.00;;;2.67;;
72720;SDS011;60835;50.974;10.322;2024-01-06T11:58:01;7.28;;;2.72;;
72720;SDS011;60835;50.974;10.322;2024-01-06T12:00:30;7.00;;;2.03;;
72720;SDS011;60835;50.974;10.322;2024-01-06T12:02:57;9.30;;;2.78;;
72720;SDS011;60835;50.974;10.322;2024-01-06T12:05:25;5.13;;;2.30;;
72720;SDS011;60835;50.974;10.322;2024-01-06T12:07:53;6.10;;;3.15;;
72720;SDS011;60835;50.974;10.322;2024-01-06T12:10:21;9.35;;;2.63;;
72720;SDS011;60835;50.974;10.322;2024-01-06T12:12:58;9.95;;;2.97;;
72720;SDS011;60835;50.974;10.322;2024-01-06T12:15:27;5.75;;;2.85;;
72720;SDS011;60835;50.974;10.322;2024-01-06T12:17:55;10.25;;;3.22;;
72720;SDS011;60835;50.974;10.322;2024-01-06T12:20:23;7.35;;;3.28;;
72720;SDS011;60835;50.974;10.322;2024-01-06T12:22:51;6.38;;;2.90;;
72720;SDS011;60835;50.974;10.322;2024-01-06T12:25:18;5.93;;;3.03;;
72720;SDS011;60835;50.974;10.322;2024-01-06T12:27:47;6.40;;;2.67;;
72720;SDS011;60835;50.974;10.322;2024-01-06T12:30:15;9.43;;;3.08;;
72720;SDS011;60835;50.974;10.322;2024-01-06T12:32:46;9.00;;;3.13;;
72720;SDS011;60835;50.974;10.322;2024-01-06T12:35:15;7.00;;;3.30;;
72720;SDS011;60835;50.974;10.322;2024-01-06T12:37:43;6.13;;;3.13;;
72720;SDS011;60835;50.974;10.322;2024-01-06T12:40:15;14.50;;;3.15;;
72720;SDS011;60835;50.974;10.322;2024-01-06T12:42:43;5.40;;;2.45;;
72720;SDS011;60835;50.974;10.322;2024-01-06T12:45:11;9.05;;;3.22;;
72720;SDS011;60835;50.974;10.322;2024-01-06T12:47:39;9.85;;;3.95;;
72720;SDS011;60835;50.974;10.322;2024-01-06T12:50:06;9.80;;;3.45;;
72720;SDS011;60835;50.974;10.322;2024-01-06T12:52:34;9.70;;;3.92;;
72720;SDS011;60835;50.974;10.322;2024-01-06T12:55:01;8.18;;;3.78;;
72720;SDS011;60835;50.974;10.322;2024-01-06T12:57:29;9.70;;;4.47;;
72720;SDS011;60835;50.974;10.322;2024-01-06T12:59:56;7.05;;;3.30;;
72720;SDS011;60835;50.974;10.322;2024-01-06T13:02:22;8.27;;;3.42;;
72720;SDS011;60835;50.974;10.322;2024-01-06T13:04:49;10.80;;;3.67;;
72720;SDS011;60835;50.974;10.322;2024-01-06T13:07:15;10.70;;;3.55;;
72720;SDS011;60835;50.974;10.322;2024-01-06T13:09:42;6.00;;;3.35;;
72720;SDS011;60835;50.974;10.322;2024-01-06T13:12:08;9.68;;;3.08;;
72720;SDS011;60835;50.974;10.322;2024-01-06T13:14:35;6.13;;;3.10;;
72720;SDS011;60835;50.974;10.322;2024-01-06T13:17:02;6.95;;;3.35;;
72720;SDS011;60835;50.974;10.322;2024-01-06T13:19:28;4.95;;;2.92;;
72720;SDS011;60835;50.974;10.322;2024-01-06T13:21:55;6.65;;;2.60;;
72720;SDS011;60835;50.974;10.322;2024-01-06T13:24:22;6.22;;;2.95;;
72720;SDS011;60835;50.974;10.322;2024-01-06T13:26:49;9.30;;;3.40;;
72720;SDS011;60835;50.974;10.322;2024-01-06T13:29:16;7.55;;;3.00;;
72720;SDS011;60835;50.974;10.322;2024-01-06T13:31:44;7.93;;;3.40;;
72720;SDS011;60835;50.974;10.322;2024-01-06T13:34:11;10.95;;;4.00;;
72720;SDS011;60835;50.974;10.322;2024-01-06T13:36:37;7.80;;;3.25;;
72720;SDS011;60835;50.974;10.322;2024-01-06T13:39:05;11.13;;;3.88;;
72720;SDS011;60835;50.974;10.322;2024-01-06T13:41:33;9.68;;;4.25;;
72720;SDS011;60835;50.974;10.322;2024-01-06T13:43:59;12.55;;;4.53;;
72720;SDS011;60835;50.974;10.322;2024-01-06T13:46:26;10.00;;;4.57;;
72720;SDS011;60835;50.974;10.322;2024-01-06T13:48:52;8.68;;;3.45;;
72720;SDS011;60835;50.974;10.322;2024-01-06T13:51:19;9.23;;;4.10;;
72720;SDS011;60835;50.974;10.322;2024-01-06T13:53:45;7.88;;;3.78;;
72720;SDS011;60835;50.974;10.322;2024-01-06T13:56:12;10.48;;;4.22;;
72720;SDS011;60835;50.974;10.322;2024-01-06T13:58:38;9.43;;;4.35;;
72720;SDS011;60835;50.974;10.322;2024-01-06T14:01:05;9.75;;;3.72;;
72720;SDS011;60835;50.974;10.322;2024-01-06T14:03:31;8.13;;;3.67;;
72720;SDS011;60835;50.974;10.322;2024-01-06T14:05:59;11.10;;;4.32;;
72720;SDS011;60835;50.974;10.322;2024-01-06T14:08:26;9.23;;;3.70;;
72720;SDS011;60835;50.974;10.322;2024-01-06T14:10:52;7.57;;;3.50;;
72720;SDS011;60835;50.974;10.322;2024-01-06T14:13:19;5.07;;;3.30;;
72720;SDS011;60835;50.974;10.322;2024-01-06T14:15:45;11.52;;;4.43;;
72720;SDS011;60835;50.974;10.322;2024-01-06T14:18:12;11.43;;;3.67;;
72720;SDS011;60835;50.974;10.322;2024-01-06T14:20:41;9.43;;;3.92;;
72720;SDS011;60835;50.974;10.322;2024-01-06T14:23:08;8.32;;;3.63;;
72720;SDS011;60835;50.974;10.322;2024-01-06T14:25:37;9.30;;;3.88;;
72720;SDS011;60835;50.974;10.322;2024-01-06T14:28:03;8.63;;;4.40;;
72720;SDS011;60835;50.974;10.322;2024-01-06T14:30:32;8.80;;;3.97;;
72720;SDS011;60835;50.974;10.322;2024-01-06T14:32:59;9.40;;;4.35;;
72720;SDS011;60835;50.974;10.322;2024-01-06T14:35:26;10.90;;;4.22;;
72720;SDS011;60835;50.974;10.322;2024-01-06T14:37:52;9.93;;;4.18;;
72720;SDS011;60835;50.974;10.322;2024-01-06T14:40:20;9.45;;;4.53;;